Time;durP1;ratioP1;P1;durP2;ratioP2;P2;SDS_P1;SDS_P2;PMS_P1;PMS_P2;Temp;Humidity;BMP_temperature;BMP_pressure;BME280_temperature;BME280_humidity;BME280_pressure;Samples;Min_cycle;Max_cycle;Signal;HPM_P1;HPM_P2
2023/11/01 00:00:19;;;;;;;;;1.33;0.67;;;;;;;;5139685;27;45597;-52
2023/11/01 00:02:44;;;;;;;;;1.67;0.67;;;;;;;;5138233;27;45919;-53
2023/11/01 00:05:09;;;;;;;;;1.33;0.67;;;;;;;;5137074;27;45711;-52
2023/11/01 00:07:35;;;;;;;;;1.00;1.00;;;;;;;;5138812;27;45546;-53
2023/11/01 00:10:00;;;;;;;;;1.00;1.00;;;;;;;;5138864;27;46216;-51
2023/11/01 00:12:25;;;;;;;;;1.67;1.67;;;;;;;;5138019;27;45351;-52
2023/11/01 00:14:50;;;;;;;;;2.00;1.00;;;;;;;;5131891;27;45293;-53
2023/11/01 00:17:15;;;;;;;;;0.67;0.67;;;;;;;;5117743;27;45680;-53
2023/11/01 00:19:40;;;;;;;;;1.00;1.00;;;;;;;;5135408;27;45538;-53
2023/11/01 00:22:06;;;;;;;;;1.67;1.00;;;;;;;;5115658;27;45916;-53
2023/11/01 00:24:31;;;;;;;;;1.00;1.00;;;;;;;;5137424;27;45538;-53
2023/11/01 00:26:56;;;;;;;;;0.00;0.00;;;;;;;;5132028;27;45629;-53
2023/11/01 00:29:21;;;;;;;;;2.67;0.67;;;;;;;;5129519;27;45276;-53
2023/11/01 00:31:46;;;;;;;;;3.67;1.00;;;;;;;;5137572;27;45313;-52
2023/11/01 00:34:12;;;;;;;;;3.67;3.00;;;;;;;;5138562;27;45416;-54
2023/11/01 00:36:37;;;;;;;;;1.67;1.00;;;;;;;;5134957;27;46066;-54
2023/11/01 00:39:03;;;;;;;;;1.00;1.00;;;;;;;;5134390;27;46213;-53
2023/11/01 00:41:28;;;;;;;;;3.33;1.00;;;;;;;;5136701;27;45537;-54
2023/11/01 00:43:53;;;;;;;;;3.00;2.00;;;;;;;;5141050;27;45267;-54
2023/11/01 00:46:18;;;;;;;;;0.33;0.33;;;;;;;;5137551;27;45476;-52
2023/11/01 00:48:43;;;;;;;;;1.33;0.67;;;;;;;;5138910;27;45479;-53
2023/11/01 00:51:08;;;;;;;;;1.33;1.33;;;;;;;;5134329;27;45290;-53
2023/11/01 00:53:34;;;;;;;;;1.00;1.00;;;;;;;;5134760;27;45325;-53
2023/11/01 00:55:59;;;;;;;;;1.00;1.00;;;;;;;;5131140;27;45384;-52
2023/11/01 00:58:24;;;;;;;;;2.00;1.00;;;;;;;;5141312;27;46560;-53
2023/11/01 01:00:49;;;;;;;;;2.67;2.00;;;;;;;;5136588;27;45218;-53
2023/11/01 01:03:15;;;;;;;;;3.00;2.33;;;;;;;;5130866;27;45208;-53
2023/11/01 01:05:41;;;;;;;;;1.67;1.00;;;;;;;;5133060;27;45490;-52
2023/11/01 01:08:06;;;;;;;;;3.33;1.00;;;;;;;;5137534;27;45478;-53
2023/11/01 01:10:32;;;;;;;;;1.33;1.00;;;;;;;;5126623;27;45349;-53
2023/11/01 01:12:57;;;;;;;;;3.00;1.33;;;;;;;;5140425;27;45320;-54
2023/11/01 01:15:22;;;;;;;;;1.33;1.33;;;;;;;;5137756;27;45427;-53
2023/11/01 01:17:47;;;;;;;;;1.67;1.00;;;;;;;;5139628;27;46166;-53
2023/11/01 01:20:12;;;;;;;;;0.67;0.67;;;;;;;;5139569;27;45311;-54
2023/11/01 01:22:38;;;;;;;;;2.00;1.00;;;;;;;;5122188;27;45391;-52
2023/11/01 01:25:03;;;;;;;;;0.67;0.67;;;;;;;;5140194;27;45300;-53
2023/11/01 01:27:29;;;;;;;;;3.00;1.00;;;;;;;;5140255;27;45433;-53
2023/11/01 01:29:54;;;;;;;;;2.67;1.00;;;;;;;;5139564;27;45407;-54
2023/11/01 01:32:19;;;;;;;;;1.00;0.67;;;;;;;;5140936;27;45427;-53
2023/11/01 01:34:44;;;;;;;;;0.67;0.67;;;;;;;;5141932;27;45501;-53
2023/11/01 01:37:09;;;;;;;;;4.00;1.00;;;;;;;;5139127;27;45637;-53
2023/11/01 01:39:35;;;;;;;;;0.67;0.67;;;;;;;;5139480;27;45707;-51
2023/11/01 01:42:00;;;;;;;;;0.00;0.00;;;;;;;;5140538;27;45446;-51
2023/11/01 01:44:25;;;;;;;;;4.67;1.00;;;;;;;;5139725;27;45217;-53
2023/11/01 01:46:50;;;;;;;;;0.00;0.00;;;;;;;;5139133;27;45356;-53
2023/11/01 01:49:15;;;;;;;;;2.67;0.67;;;;;;;;5126955;27;45401;-55
2023/11/01 01:51:41;;;;;;;;;1.33;1.33;;;;;;;;5138934;27;45963;-53
2023/11/01 01:54:07;;;;;;;;;3.00;0.67;;;;;;;;5139008;27;45348;-53
2023/11/01 01:56:33;;;;;;;;;1.67;1.67;;;;;;;;5132379;27;46204;-53
2023/11/01 01:58:58;;;;;;;;;0.67;0.67;;;;;;;;5100395;27;45423;-52
2023/11/01 02:01:28;;;;;;;;;2.00;1.00;;;;;;;;5139539;27;45158;-54
2023/11/01 02:03:53;;;;;;;;;3.33;0.67;;;;;;;;5139010;27;45541;-53
2023/11/01 02:06:19;;;;;;;;;3.33;1.00;;;;;;;;5127148;27;46618;-53
2023/11/01 02:08:44;;;;;;;;;1.00;1.00;;;;;;;;5139077;27;45397;-53
2023/11/01 02:11:09;;;;;;;;;2.00;1.00;;;;;;;;5143829;27;45355;-54
2023/11/01 02:13:34;;;;;;;;;2.00;1.67;;;;;;;;5113096;27;45396;-53
2023/11/01 02:15:59;;;;;;;;;0.67;0.67;;;;;;;;5142232;27;45342;-53
2023/11/01 02:18:25;;;;;;;;;1.67;1.67;;;;;;;;5142077;27;45316;-53
2023/11/01 02:20:52;;;;;;;;;1.33;0.67;;;;;;;;5122517;27;45376;-53
2023/11/01 02:23:17;;;;;;;;;3.33;1.33;;;;;;;;5140187;27;45519;-54
2023/11/01 02:25:43;;;;;;;;;3.00;1.00;;;;;;;;5143681;27;46466;-51
2023/11/01 02:28:09;;;;;;;;;2.00;1.00;;;;;;;;5141667;27;45330;-53
2023/11/01 02:30:34;;;;;;;;;2.67;1.00;;;;;;;;5143981;27;45288;-54
2023/11/01 02:33:00;;;;;;;;;1.33;0.00;;;;;;;;5143424;27;45659;-54
2023/11/01 02:35:25;;;;;;;;;1.00;1.00;;;;;;;;5124453;27;48187;-51
2023/11/01 02:37:50;;;;;;;;;0.00;0.00;;;;;;;;5141604;27;45159;-52
2023/11/01 02:40:16;;;;;;;;;0.33;0.33;;;;;;;;5142820;27;45282;-52
2023/11/01 02:42:42;;;;;;;;;0.67;0.67;;;;;;;;5140050;27;45562;-52
2023/11/01 02:45:09;;;;;;;;;1.67;0.67;;;;;;;;5143104;27;45421;-53
2023/11/01 02:47:34;;;;;;;;;1.00;1.00;;;;;;;;5140805;27;45379;-51
2023/11/01 02:50:00;;;;;;;;;1.67;0.67;;;;;;;;5142889;27;45838;-51
2023/11/01 02:52:25;;;;;;;;;0.00;0.00;;;;;;;;5140549;27;45713;-53
2023/11/01 02:54:50;;;;;;;;;1.00;1.00;;;;;;;;5138563;27;45455;-52
2023/11/01 02:57:15;;;;;;;;;2.33;0.33;;;;;;;;5132009;27;45770;-52
2023/11/01 02:59:40;;;;;;;;;2.00;0.67;;;;;;;;5131141;27;45490;-52
2023/11/01 03:02:06;;;;;;;;;0.50;0.50;;;;;;;;5142120;27;45574;-53
2023/11/01 03:04:31;;;;;;;;;1.67;0.33;;;;;;;;5140338;27;47230;-53
2023/11/01 03:06:56;;;;;;;;;1.00;1.00;;;;;;;;5142123;27;45489;-53
2023/11/01 03:09:21;;;;;;;;;1.33;1.33;;;;;;;;5138258;27;45439;-53
2023/11/01 03:11:46;;;;;;;;;1.33;1.33;;;;;;;;5142572;27;45541;-53
2023/11/01 03:14:12;;;;;;;;;1.00;1.00;;;;;;;;5130130;27;45472;-53
2023/11/01 03:16:38;;;;;;;;;0.67;0.67;;;;;;;;5142823;27;45315;-53
2023/11/01 03:19:03;;;;;;;;;3.00;1.00;;;;;;;;5140201;27;45416;-54
2023/11/01 03:21:28;;;;;;;;;0.67;0.67;;;;;;;;5138116;27;45193;-53
2023/11/01 03:23:54;;;;;;;;;2.00;0.67;;;;;;;;5141009;27;46281;-53
2023/11/01 03:26:19;;;;;;;;;2.00;0.67;;;;;;;;5140910;27;45211;-54
2023/11/01 03:28:45;;;;;;;;;0.00;0.00;;;;;;;;5138138;27;45372;-53
2023/11/01 03:31:10;;;;;;;;;2.67;0.67;;;;;;;;5139077;27;45384;-53
2023/11/01 03:33:36;;;;;;;;;1.00;1.00;;;;;;;;5138193;27;46058;-54
2023/11/01 03:36:01;;;;;;;;;1.00;1.00;;;;;;;;5121718;27;45612;-53
2023/11/01 03:38:26;;;;;;;;;1.67;1.67;;;;;;;;5140582;27;45721;-59
2023/11/01 03:40:51;;;;;;;;;1.67;0.67;;;;;;;;5140155;27;45635;-54
2023/11/01 03:43:16;;;;;;;;;2.00;0.00;;;;;;;;5140223;27;45441;-54
2023/11/01 03:45:41;;;;;;;;;5.00;2.33;;;;;;;;5140481;27;45439;-54
2023/11/01 03:48:08;;;;;;;;;1.00;1.00;;;;;;;;5139536;27;45389;-54
2023/11/01 03:50:33;;;;;;;;;1.50;1.50;;;;;;;;5138281;27;45633;-52
2023/11/01 03:52:59;;;;;;;;;1.00;1.00;;;;;;;;5121437;27;47243;-53
2023/11/01 03:55:24;;;;;;;;;4.33;1.67;;;;;;;;5140935;27;45662;-53
2023/11/01 03:57:49;;;;;;;;;3.50;1.50;;;;;;;;5129120;27;45321;-53
2023/11/01 04:00:20;;;;;;;;;0.33;0.33;;;;;;;;5138069;27;45587;-52
2023/11/01 04:02:46;;;;;;;;;2.00;1.00;;;;;;;;5138083;27;45364;-53
2023/11/01 04:05:11;;;;;;;;;4.00;1.00;;;;;;;;5136901;27;45194;-53
2023/11/01 04:07:36;;;;;;;;;1.67;1.67;;;;;;;;5138047;27;45272;-54
2023/11/01 04:10:01;;;;;;;;;1.33;1.00;;;;;;;;5141762;27;45531;-52
2023/11/01 04:12:27;;;;;;;;;0.67;0.67;;;;;;;;5141560;27;46185;-52
2023/11/01 04:14:52;;;;;;;;;0.33;0.33;;;;;;;;5141823;27;45437;-53
2023/11/01 04:17:18;;;;;;;;;1.67;0.67;;;;;;;;5139091;27;45593;-53
2023/11/01 04:19:43;;;;;;;;;1.00;1.00;;;;;;;;5141887;27;45359;-52
2023/11/01 04:22:09;;;;;;;;;0.67;0.33;;;;;;;;5138900;27;46295;-53
2023/11/01 04:24:34;;;;;;;;;0.67;0.67;;;;;;;;5139758;27;45302;-53
2023/11/01 04:26:59;;;;;;;;;1.33;1.33;;;;;;;;5120255;27;45330;-53
2023/11/01 04:29:26;;;;;;;;;1.67;1.67;;;;;;;;5140772;27;45372;-53
2023/11/01 04:31:52;;;;;;;;;3.33;1.33;;;;;;;;5136823;27;45498;-53
2023/11/01 04:34:18;;;;;;;;;1.67;1.67;;;;;;;;5141479;27;45212;-52
2023/11/01 04:36:43;;;;;;;;;3.00;1.00;;;;;;;;5140977;27;45427;-55
2023/11/01 04:39:10;;;;;;;;;3.33;1.00;;;;;;;;5143059;27;45270;-54
2023/11/01 04:41:35;;;;;;;;;0.67;0.67;;;;;;;;5136281;27;46077;-52
2023/11/01 04:44:01;;;;;;;;;2.00;1.00;;;;;;;;5140861;27;45371;-51
2023/11/01 04:46:26;;;;;;;;;0.67;0.67;;;;;;;;5121485;27;45498;-53
2023/11/01 04:48:52;;;;;;;;;3.67;3.00;;;;;;;;5140993;27;45454;-53
2023/11/01 04:51:17;;;;;;;;;1.33;0.67;;;;;;;;5141244;27;46728;-53
2023/11/01 04:53:43;;;;;;;;;3.67;2.00;;;;;;;;5141626;27;45291;-53
2023/11/01 04:56:08;;;;;;;;;1.00;1.00;;;;;;;;5134254;27;45632;-51
2023/11/01 04:58:34;;;;;;;;;1.33;1.00;;;;;;;;5123590;27;45462;-53
2023/11/01 05:01:00;;;;;;;;;1.33;1.33;;;;;;;;5136413;27;47127;-53
2023/11/01 05:03:25;;;;;;;;;1.00;1.00;;;;;;;;5140601;27;46545;-52
2023/11/01 05:05:51;;;;;;;;;2.00;1.00;;;;;;;;5140923;27;45394;-51
2023/11/01 05:08:16;;;;;;;;;2.33;2.00;;;;;;;;5140861;27;45309;-50
2023/11/01 05:10:41;;;;;;;;;1.00;1.00;;;;;;;;5137169;27;46763;-51
2023/11/01 05:13:06;;;;;;;;;2.33;0.67;;;;;;;;5131014;27;45475;-52
2023/11/01 05:15:32;;;;;;;;;4.33;1.00;;;;;;;;5136519;27;45365;-54
2023/11/01 05:17:57;;;;;;;;;2.00;0.67;;;;;;;;5139394;27;45273;-53
2023/11/01 05:20:23;;;;;;;;;2.67;0.67;;;;;;;;5139014;27;45322;-53
2023/11/01 05:22:48;;;;;;;;;1.33;1.33;;;;;;;;5141230;27;45426;-52
2023/11/01 05:25:13;;;;;;;;;2.00;2.00;;;;;;;;5117914;27;45329;-52
2023/11/01 05:27:41;;;;;;;;;0.67;0.67;;;;;;;;5139385;27;45591;-54
2023/11/01 05:30:07;;;;;;;;;0.67;0.67;;;;;;;;5139060;27;46664;-54
2023/11/01 05:32:32;;;;;;;;;0.67;0.67;;;;;;;;5140386;27;45291;-54
2023/11/01 05:34:58;;;;;;;;;1.67;0.67;;;;;;;;5139566;27;45562;-53
2023/11/01 05:37:23;;;;;;;;;2.33;0.33;;;;;;;;5141111;27;45344;-51
2023/11/01 05:39:49;;;;;;;;;1.00;1.00;;;;;;;;5139048;27;46168;-52
2023/11/01 05:42:14;;;;;;;;;2.00;2.00;;;;;;;;5140245;27;45387;-53
2023/11/01 05:44:40;;;;;;;;;1.00;1.00;;;;;;;;5141642;27;45649;-53
2023/11/01 05:47:06;;;;;;;;;2.00;2.00;;;;;;;;5141763;27;45616;-54
2023/11/01 05:49:31;;;;;;;;;1.67;1.67;;;;;;;;5143763;27;46458;-53
2023/11/01 05:51:56;;;;;;;;;1.67;1.00;;;;;;;;5143967;27;45324;-54
2023/11/01 05:54:21;;;;;;;;;1.33;1.33;;;;;;;;5138807;27;45314;-53
2023/11/01 05:56:47;;;;;;;;;2.00;2.00;;;;;;;;5135979;27;45285;-53
2023/11/01 05:59:12;;;;;;;;;1.00;1.00;;;;;;;;5141038;27;46353;-53
2023/11/01 06:01:37;;;;;;;;;3.00;2.00;;;;;;;;5144213;27;45156;-53
2023/11/01 06:04:02;;;;;;;;;0.67;0.00;;;;;;;;5143631;27;45360;-54
2023/11/01 06:06:28;;;;;;;;;2.33;1.67;;;;;;;;5144253;27;45218;-53
2023/11/01 06:08:53;;;;;;;;;2.00;0.00;;;;;;;;5131230;27;46536;-54
2023/11/01 06:11:19;;;;;;;;;2.33;2.00;;;;;;;;5144118;27;45304;-53
2023/11/01 06:13:44;;;;;;;;;1.00;1.00;;;;;;;;5130349;27;45699;-53
2023/11/01 06:16:10;;;;;;;;;2.00;1.00;;;;;;;;5130883;27;45203;-53
2023/11/01 06:18:35;;;;;;;;;2.67;1.67;;;;;;;;5128932;27;45407;-52
2023/11/01 06:21:00;;;;;;;;;2.33;1.00;;;;;;;;5132613;27;45259;-53
2023/11/01 06:23:26;;;;;;;;;2.00;2.00;;;;;;;;5143173;27;45349;-54
2023/11/01 06:25:51;;;;;;;;;2.00;0.67;;;;;;;;5143892;27;45280;-54
2023/11/01 06:28:16;;;;;;;;;2.67;1.67;;;;;;;;5143200;27;45700;-54
2023/11/01 06:30:42;;;;;;;;;1.00;1.00;;;;;;;;5122731;27;45702;-52
2023/11/01 06:33:07;;;;;;;;;4.00;4.00;;;;;;;;5139599;27;45553;-53
2023/11/01 06:35:32;;;;;;;;;1.00;1.00;;;;;;;;5143550;27;45398;-54
2023/11/01 06:37:57;;;;;;;;;1.67;1.67;;;;;;;;5142403;27;46758;-52
2023/11/01 06:40:22;;;;;;;;;1.00;1.00;;;;;;;;5135880;27;45592;-54
2023/11/01 06:42:48;;;;;;;;;1.00;1.00;;;;;;;;5142910;27;45402;-53
2023/11/01 06:45:13;;;;;;;;;4.00;1.00;;;;;;;;5141806;27;45682;-54
2023/11/01 06:47:39;;;;;;;;;1.00;1.00;;;;;;;;5143039;27;46568;-53
2023/11/01 06:50:04;;;;;;;;;1.67;1.67;;;;;;;;5141159;27;45421;-51
2023/11/01 06:52:29;;;;;;;;;1.00;1.00;;;;;;;;5129731;27;46302;-52
2023/11/01 06:54:54;;;;;;;;;1.00;1.00;;;;;;;;5119323;27;45344;-53
2023/11/01 06:57:20;;;;;;;;;1.67;1.67;;;;;;;;5141837;27;45895;-52
2023/11/01 06:59:45;;;;;;;;;1.00;1.00;;;;;;;;5135844;27;45528;-52
2023/11/01 07:02:10;;;;;;;;;1.00;1.00;;;;;;;;5135624;27;45313;-52
2023/11/01 07:04:35;;;;;;;;;1.00;1.00;;;;;;;;5142763;27;45496;-53
2023/11/01 07:07:00;;;;;;;;;2.67;2.00;;;;;;;;5141657;27;45726;-53
2023/11/01 07:09:26;;;;;;;;;3.00;1.00;;;;;;;;5137684;27;45357;-53
2023/11/01 07:11:51;;;;;;;;;2.67;2.00;;;;;;;;5133062;27;45473;-51
2023/11/01 07:14:17;;;;;;;;;2.00;0.33;;;;;;;;5140810;27;45329;-53
2023/11/01 07:16:43;;;;;;;;;1.33;1.33;;;;;;;;5141316;27;46255;-53
2023/11/01 07:19:08;;;;;;;;;1.50;1.00;;;;;;;;5133147;27;45229;-53
2023/11/01 07:21:33;;;;;;;;;1.00;1.00;;;;;;;;5142125;27;45527;-50
2023/11/01 07:23:58;;;;;;;;;1.50;1.50;;;;;;;;5141589;27;45275;-51
2023/11/01 07:26:24;;;;;;;;;1.33;1.00;;;;;;;;5142412;27;45380;-52
2023/11/01 07:28:49;;;;;;;;;3.00;2.00;;;;;;;;5141288;27;45559;-53
2023/11/01 07:31:14;;;;;;;;;2.00;2.00;;;;;;;;5141654;27;45201;-51
2023/11/01 07:33:42;;;;;;;;;1.67;1.67;;;;;;;;5141866;27;45592;-52
2023/11/01 07:36:08;;;;;;;;;1.00;1.00;;;;;;;;5141700;27;47114;-48
2023/11/01 07:38:33;;;;;;;;;1.00;1.00;;;;;;;;5141896;27;45390;-46
2023/11/01 07:40:58;;;;;;;;;0.33;0.33;;;;;;;;5138449;27;45574;-47
2023/11/01 07:43:23;;;;;;;;;1.00;1.00;;;;;;;;5142836;27;45419;-48
2023/11/01 07:45:49;;;;;;;;;1.67;0.67;;;;;;;;5140002;27;46286;-47
2023/11/01 07:48:14;;;;;;;;;1.67;1.67;;;;;;;;5128057;27;46356;-47
2023/11/01 07:50:40;;;;;;;;;2.67;2.00;;;;;;;;5128354;27;44735;-47
2023/11/01 07:53:05;;;;;;;;;2.00;2.00;;;;;;;;5141621;27;45802;-47
2023/11/01 07:55:31;;;;;;;;;2.00;1.00;;;;;;;;5141443;27;46132;-48
2023/11/01 07:57:56;;;;;;;;;2.67;1.00;;;;;;;;5141064;27;45427;-47
2023/11/01 08:00:21;;;;;;;;;5.00;2.00;;;;;;;;5134359;27;45650;-48
2023/11/01 08:02:46;;;;;;;;;3.33;1.67;;;;;;;;5123426;27;45321;-51
2023/11/01 08:05:11;;;;;;;;;2.00;1.00;;;;;;;;5131104;27;46599;-48
2023/11/01 08:07:37;;;;;;;;;1.00;1.00;;;;;;;;5132153;27;45330;-50
2023/11/01 08:10:03;;;;;;;;;2.00;1.00;;;;;;;;5120285;27;45832;-49
2023/11/01 08:12:28;;;;;;;;;3.67;1.33;;;;;;;;5111518;27;45823;-47
2023/11/01 08:14:53;;;;;;;;;2.67;1.67;;;;;;;;5134412;27;45440;-50
2023/11/01 08:17:19;;;;;;;;;3.67;2.00;;;;;;;;5125556;27;45336;-51
2023/11/01 08:19:44;;;;;;;;;1.00;1.00;;;;;;;;5126540;27;45384;-48
2023/11/01 08:22:12;;;;;;;;;1.00;1.00;;;;;;;;5140705;27;45443;-47
2023/11/01 08:24:38;;;;;;;;;3.33;2.00;;;;;;;;5140185;27;46060;-48
2023/11/01 08:27:04;;;;;;;;;1.67;1.00;;;;;;;;5139112;27;45529;-49
2023/11/01 08:29:30;;;;;;;;;2.00;2.00;;;;;;;;5118706;27;45384;-47
2023/11/01 08:31:56;;;;;;;;;0.67;0.67;;;;;;;;5140165;27;45798;-47
2023/11/01 08:34:21;;;;;;;;;0.67;0.67;;;;;;;;5138724;27;45607;-47
2023/11/01 08:36:46;;;;;;;;;2.00;1.67;;;;;;;;5122059;27;45407;-47
2023/11/01 08:39:11;;;;;;;;;1.67;1.67;;;;;;;;5140130;27;45694;-51
2023/11/01 08:41:36;;;;;;;;;2.00;2.00;;;;;;;;5140134;27;45444;-49
2023/11/01 08:44:01;;;;;;;;;3.00;2.33;;;;;;;;5140804;27;46594;-47
2023/11/01 08:46:27;;;;;;;;;4.00;2.00;;;;;;;;5139163;27;45332;-48
2023/11/01 08:48:52;;;;;;;;;0.67;0.67;;;;;;;;5140166;27;45646;-47
2023/11/01 08:51:18;;;;;;;;;3.33;2.00;;;;;;;;5141610;27;45435;-48
2023/11/01 08:53:43;;;;;;;;;2.67;2.67;;;;;;;;5140853;27;45983;-49
2023/11/01 08:56:08;;;;;;;;;1.00;1.00;;;;;;;;5139550;27;45404;-48
2023/11/01 08:58:33;;;;;;;;;2.33;1.33;;;;;;;;5140810;27;45497;-49
2023/11/01 09:00:59;;;;;;;;;2.33;1.33;;;;;;;;5139658;27;45488;-47
2023/11/01 09:03:25;;;;;;;;;1.00;1.00;;;;;;;;5140473;27;46479;-47
2023/11/01 09:05:51;;;;;;;;;0.67;0.67;;;;;;;;5141306;27;45391;-47
2023/11/01 09:08:16;;;;;;;;;3.67;2.00;;;;;;;;5135822;27;45513;-47
2023/11/01 09:10:41;;;;;;;;;1.67;1.67;;;;;;;;5141511;27;45438;-46
2023/11/01 09:13:07;;;;;;;;;2.67;1.00;;;;;;;;5139733;27;45613;-49
2023/11/01 09:15:33;;;;;;;;;1.67;0.33;;;;;;;;5138244;27;45309;-48
2023/11/01 09:17:58;;;;;;;;;0.33;0.33;;;;;;;;5138393;27;45393;-48
2023/11/01 09:20:23;;;;;;;;;0.00;0.00;;;;;;;;5126969;27;45443;-49
2023/11/01 09:22:48;;;;;;;;;0.67;0.67;;;;;;;;5137998;27;46384;-47
2023/11/01 09:25:13;;;;;;;;;0.33;0.33;;;;;;;;5137737;27;45389;-47
2023/11/01 09:27:39;;;;;;;;;0.33;0.33;;;;;;;;5139054;27;46347;-48
2023/11/01 09:30:04;;;;;;;;;0.33;0.33;;;;;;;;5134600;27;45657;-47
2023/11/01 09:32:29;;;;;;;;;0.67;0.00;;;;;;;;5139212;27;45459;-47
2023/11/01 09:34:55;;;;;;;;;1.00;1.00;;;;;;;;5137913;27;45447;-48
2023/11/01 09:37:20;;;;;;;;;0.67;0.67;;;;;;;;5140226;27;45384;-48
2023/11/01 09:39:46;;;;;;;;;2.67;0.67;;;;;;;;5134983;27;45345;-46
2023/11/01 09:42:19;;;;;;;;;0.00;0.00;;;;;;;;5115538;27;48253;-47
2023/11/01 09:44:46;;;;;;;;;1.67;0.00;;;;;;;;5135815;27;45483;-46
2023/11/01 09:47:13;;;;;;;;;2.00;0.67;;;;;;;;5135830;27;45306;-49
2023/11/01 09:49:38;;;;;;;;;0.00;0.00;;;;;;;;5137249;27;45524;-47
2023/11/01 09:52:05;;;;;;;;;0.33;0.00;;;;;;;;5136897;27;46011;-48
2023/11/01 09:54:30;;;;;;;;;0.00;0.00;;;;;;;;5133746;27;45284;-48
2023/11/01 09:56:56;;;;;;;;;2.00;0.00;;;;;;;;5126380;27;45495;-47
2023/11/01 09:59:22;;;;;;;;;1.00;1.00;;;;;;;;5121127;27;45443;-49
2023/11/01 10:01:47;;;;;;;;;0.00;0.00;;;;;;;;5121860;27;45972;-48
2023/11/01 10:04:12;;;;;;;;;1.00;1.00;;;;;;;;5137276;27;45400;-49
2023/11/01 10:06:38;;;;;;;;;0.33;0.33;;;;;;;;5139308;27;45395;-47
2023/11/01 10:09:04;;;;;;;;;1.00;0.00;;;;;;;;5128120;27;45506;-49
2023/11/01 10:11:31;;;;;;;;;0.00;0.00;;;;;;;;5139688;27;47605;-48
2023/11/01 10:13:56;;;;;;;;;0.67;0.67;;;;;;;;5132157;27;46302;-49
2023/11/01 10:16:21;;;;;;;;;0.67;0.67;;;;;;;;5134378;27;45681;-49
2023/11/01 10:18:46;;;;;;;;;0.67;0.67;;;;;;;;5133464;27;45497;-50
2023/11/01 10:21:12;;;;;;;;;0.67;0.67;;;;;;;;5129307;27;46403;-49
2023/11/01 10:23:37;;;;;;;;;0.00;0.00;;;;;;;;5132237;27;45578;-49
2023/11/01 10:26:03;;;;;;;;;0.00;0.00;;;;;;;;5134991;27;45280;-46
2023/11/01 10:28:39;;;;;;;;;0.00;0.00;;;;;;;;5134329;27;45656;-49
2023/11/01 10:31:04;;;;;;;;;1.00;1.00;;;;;;;;5137459;27;45758;-47
2023/11/01 10:33:33;;;;;;;;;1.33;0.33;;;;;;;;5137380;27;45563;-49
2023/11/01 10:36:01;;;;;;;;;0.67;0.67;;;;;;;;5138179;27;45636;-48
2023/11/01 10:38:28;;;;;;;;;1.67;0.00;;;;;;;;5137254;27;45637;-49
2023/11/01 10:40:54;;;;;;;;;0.00;0.00;;;;;;;;5128956;27;47357;-49
2023/11/01 10:43:22;;;;;;;;;0.00;0.00;;;;;;;;5136599;27;45289;-49
2023/11/01 10:45:48;;;;;;;;;0.33;0.00;;;;;;;;5137401;27;45490;-48
2023/11/01 10:48:14;;;;;;;;;0.67;0.00;;;;;;;;5134651;27;45525;-49
2023/11/01 10:50:39;;;;;;;;;0.67;0.67;;;;;;;;5126786;27;47632;-49
2023/11/01 10:53:06;;;;;;;;;0.67;0.67;;;;;;;;5135107;27;45368;-48
2023/11/01 10:55:32;;;;;;;;;0.00;0.00;;;;;;;;5138879;27;45538;-49
2023/11/01 10:57:57;;;;;;;;;0.33;0.00;;;;;;;;5132078;27;45619;-49
2023/11/01 11:00:29;;;;;;;;;0.67;0.00;;;;;;;;5139289;27;45476;-49
2023/11/01 11:03:12;;;;;;;;;0.00;0.00;;;;;;;;5135522;27;45555;-48
2023/11/01 11:05:40;;;;;;;;;0.00;0.00;;;;;;;;5133249;27;45244;-51
2023/11/01 11:08:09;;;;;;;;;1.00;1.00;;;;;;;;5136990;27;45379;-48
2023/11/01 11:10:38;;;;;;;;;0.67;0.67;;;;;;;;5136060;27;45503;-48
2023/11/01 11:13:09;;;;;;;;;0.00;0.00;;;;;;;;5137214;27;46426;-50
2023/11/01 11:15:47;;;;;;;;;0.67;0.67;;;;;;;;5134046;27;45544;-51
2023/11/01 11:18:13;;;;;;;;;0.00;0.00;;;;;;;;5136130;27;45616;-48
2023/11/01 11:20:41;;;;;;;;;0.00;0.00;;;;;;;;5132185;27;45767;-48
2023/11/01 11:23:06;;;;;;;;;0.00;0.00;;;;;;;;5136740;27;45620;-48
2023/11/01 11:25:37;;;;;;;;;0.00;0.00;;;;;;;;5133062;27;45622;-49
2023/11/01 11:28:06;;;;;;;;;0.67;0.00;;;;;;;;5136407;27;45431;-49
2023/11/01 11:30:44;;;;;;;;;1.00;0.00;;;;;;;;5135900;27;47584;-50
2023/11/01 11:33:09;;;;;;;;;0.67;0.67;;;;;;;;5138339;27;45272;-48
2023/11/01 11:35:34;;;;;;;;;1.33;1.00;;;;;;;;5138182;27;45285;-51
2023/11/01 11:38:00;;;;;;;;;0.33;0.33;;;;;;;;5137428;27;45459;-48
2023/11/01 11:40:27;;;;;;;;;0.67;0.67;;;;;;;;5135757;27;46958;-50
2023/11/01 11:42:53;;;;;;;;;0.33;0.33;;;;;;;;5133286;27;46250;-51
2023/11/01 11:45:24;;;;;;;;;0.67;0.67;;;;;;;;5136665;27;45481;-49
2023/11/01 11:47:50;;;;;;;;;0.67;0.67;;;;;;;;5137193;27;45431;-51
2023/11/01 11:50:18;;;;;;;;;0.00;0.00;;;;;;;;5135253;27;46070;-51
2023/11/01 11:52:44;;;;;;;;;1.00;1.00;;;;;;;;5137357;27;45622;-50
2023/11/01 11:55:09;;;;;;;;;0.67;0.67;;;;;;;;5133722;27;45573;-51
2023/11/01 11:57:34;;;;;;;;;0.33;0.33;;;;;;;;5135793;27;45522;-50
2023/11/01 12:00:00;;;;;;;;;0.00;0.00;;;;;;;;5138213;27;45484;-52
2023/11/01 12:02:25;;;;;;;;;2.33;0.67;;;;;;;;5135734;27;45458;-49
2023/11/01 12:04:51;;;;;;;;;0.67;0.67;;;;;;;;5138486;27;45319;-51
2023/11/01 12:07:21;;;;;;;;;1.00;0.67;;;;;;;;5138946;27;45300;-49
2023/11/01 12:09:46;;;;;;;;;1.00;1.00;;;;;;;;5116911;27;46927;-48
2023/11/01 12:12:13;;;;;;;;;2.33;0.33;;;;;;;;5121307;27;45373;-50
2023/11/01 12:14:39;;;;;;;;;0.67;0.00;;;;;;;;5121567;27;45471;-52
2023/11/01 12:17:05;;;;;;;;;0.00;0.00;;;;;;;;5137898;27;45320;-53
2023/11/01 12:19:32;;;;;;;;;2.00;1.00;;;;;;;;5139723;27;45996;-50
2023/11/01 12:21:59;;;;;;;;;0.00;0.00;;;;;;;;5141259;27;45493;-50
2023/11/01 12:24:45;;;;;;;;;0.67;0.67;;;;;;;;5140943;27;45525;-49
2023/11/01 12:27:11;;;;;;;;;0.33;0.00;;;;;;;;5138936;27;45526;-50
2023/11/01 12:29:39;;;;;;;;;0.33;0.00;;;;;;;;5136527;27;45499;-49
2023/11/01 12:32:04;;;;;;;;;0.33;0.33;;;;;;;;5130155;27;45680;-51
2023/11/01 12:34:31;;;;;;;;;3.00;1.33;;;;;;;;5136489;27;45649;-50
2023/11/01 12:37:19;;;;;;;;;0.67;0.67;;;;;;;;5137650;27;45689;-49
2023/11/01 12:40:04;;;;;;;;;4.00;1.00;;;;;;;;5125226;27;45496;-51
2023/11/01 12:42:30;;;;;;;;;0.67;0.67;;;;;;;;5138392;27;45487;-51
2023/11/01 12:44:55;;;;;;;;;7.00;1.33;;;;;;;;5139202;27;45637;-53
2023/11/01 12:47:21;;;;;;;;;0.00;0.00;;;;;;;;5140612;27;45243;-51
2023/11/01 12:49:47;;;;;;;;;2.00;2.00;;;;;;;;5140302;27;46247;-49
2023/11/01 12:52:13;;;;;;;;;1.67;0.67;;;;;;;;5140773;27;45405;-52
2023/11/01 12:54:40;;;;;;;;;2.00;1.33;;;;;;;;5121462;27;46737;-52
2023/11/01 12:57:05;;;;;;;;;2.00;1.00;;;;;;;;5140961;27;45312;-52
2023/11/01 12:59:30;;;;;;;;;2.00;1.00;;;;;;;;5141157;27;45643;-50
2023/11/01 13:01:55;;;;;;;;;2.00;2.00;;;;;;;;5140833;27;45669;-51
2023/11/01 13:04:21;;;;;;;;;0.00;0.00;;;;;;;;5137696;27;45483;-51
2023/11/01 13:06:46;;;;;;;;;0.33;0.00;;;;;;;;5141237;27;45433;-48
2023/11/01 13:09:14;;;;;;;;;0.00;0.00;;;;;;;;5133743;27;45583;-49
2023/11/01 13:11:39;;;;;;;;;0.00;0.00;;;;;;;;5141153;27;45329;-49
2023/11/01 13:14:05;;;;;;;;;0.50;0.50;;;;;;;;5138767;27;45434;-49
2023/11/01 13:16:30;;;;;;;;;0.00;0.00;;;;;;;;5140341;27;45344;-50
2023/11/01 13:18:55;;;;;;;;;0.00;0.00;;;;;;;;5120587;27;45685;-52
2023/11/01 13:21:21;;;;;;;;;0.00;0.00;;;;;;;;5139983;27;45274;-50
2023/11/01 13:23:47;;;;;;;;;2.00;1.00;;;;;;;;5138443;27;45647;-53
2023/11/01 13:26:12;;;;;;;;;2.50;1.00;;;;;;;;5122355;27;45641;-50
2023/11/01 13:28:37;;;;;;;;;0.00;0.00;;;;;;;;5138455;27;45489;-48
2023/11/01 13:31:03;;;;;;;;;0.00;0.00;;;;;;;;5131209;27;45421;-50
2023/11/01 13:33:28;;;;;;;;;0.50;0.50;;;;;;;;5123253;27;47150;-52
2023/11/01 13:35:53;;;;;;;;;0.00;0.00;;;;;;;;5134842;27;45634;-50
2023/11/01 13:38:19;;;;;;;;;2.00;1.00;;;;;;;;5136982;27;46077;-48
2023/11/01 13:40:45;;;;;;;;;0.25;0.25;;;;;;;;5134070;27;45444;-49
2023/11/01 13:43:11;;;;;;;;;0.00;0.00;;;;;;;;5134361;27;45450;-50
2023/11/01 13:45:36;;;;;;;;;0.67;0.67;;;;;;;;5136282;27;45545;-51
2023/11/01 13:48:02;;;;;;;;;1.00;1.00;;;;;;;;5134324;27;45602;-51
2023/11/01 13:50:28;;;;;;;;;0.00;0.00;;;;;;;;5131380;27;45582;-48
2023/11/01 13:52:53;;;;;;;;;0.67;0.67;;;;;;;;5137948;27;45377;-49
2023/11/01 13:55:18;;;;;;;;;1.00;1.00;;;;;;;;5138864;27;45273;-52
2023/11/01 13:57:43;;;;;;;;;1.75;1.00;;;;;;;;5137019;27;46481;-49
2023/11/01 14:00:09;;;;;;;;;2.67;1.00;;;;;;;;5134223;27;45395;-49
2023/11/01 14:02:34;;;;;;;;;1.00;1.00;;;;;;;;5117216;27;45340;-52
2023/11/01 14:04:59;;;;;;;;;2.00;0.00;;;;;;;;5130660;27;45534;-51
2023/11/01 14:07:25;;;;;;;;;0.00;0.00;;;;;;;;5141956;27;46372;-53
2023/11/01 14:09:51;;;;;;;;;0.00;0.00;;;;;;;;5132604;27;45378;-50
2023/11/01 14:12:16;;;;;;;;;3.50;0.75;;;;;;;;5138012;27;45657;-53
2023/11/01 14:14:41;;;;;;;;;2.00;1.00;;;;;;;;5141957;27;45807;-52
2023/11/01 14:17:07;;;;;;;;;1.00;1.00;;;;;;;;5142253;27;46494;-51
2023/11/01 14:19:32;;;;;;;;;0.00;0.00;;;;;;;;5142287;27;45308;-53
2023/11/01 14:21:57;;;;;;;;;2.00;0.00;;;;;;;;5115818;27;45436;-50
2023/11/01 14:24:23;;;;;;;;;1.00;1.00;;;;;;;;5141459;27;45406;-50
2023/11/01 14:26:48;;;;;;;;;8.25;1.00;;;;;;;;5139933;27;45682;-49
2023/11/01 14:29:14;;;;;;;;;2.00;1.00;;;;;;;;5139963;27;45357;-51
2023/11/01 14:31:39;;;;;;;;;2.00;1.00;;;;;;;;5143514;27;45240;-50
2023/11/01 14:34:05;;;;;;;;;1.00;1.00;;;;;;;;5139280;27;45294;-50